Kyoto Maru — JD3149 — position and weather

sailwx.info

Track history (hours):
 
Tides and Currents Weather Stations Pressure Air Temp Water Temp Dewpoint Dewpoint Depression Visibility Wind Speed Wind Dir Waves Ship Positions

Kyoto Maru

Last reported at 2015-Mar-29 10:33 UTC. Time now 2015-Mar-29 10:38 UTC.
Position N 35°27' E 139°38'.

Length 34 m; draft 3.8 m.

Type: Tug. MMSI: 431002219.

Date/timePositionNaut miles runAvg speedWind from/ knotsBaromVisibWave heightAir tempDewpointWater temp
2015-Mar-29 10:33N 35°27' E 139°38'0 0.0
2015-Mar-29 09:33N 35°27' E 139°38'0 0.0
2015-Mar-29 08:33N 35°27' E 139°38'0 0.0
2015-Mar-29 07:33N 35°27' E 139°38'1 0.8
2015-Mar-29 06:34N 35°27' E 139°39'1 1.1
2015-Mar-29 05:33N 35°27' E 139°41'4 3.8
2015-Mar-29 04:33N 35°29' E 139°45'1 0.8
2015-Mar-29 03:33N 35°28' E 139°45'0 0.0
2015-Mar-29 02:33N 35°28' E 139°45'2 2.4
2015-Mar-29 01:34N 35°30' E 139°47'1 0.7
2015-Mar-29 00:33N 35°31' E 139°46'1 1.5
2015-Mar-28 23:33N 35°29' E 139°47'0 0.0
2015-Mar-28 22:34N 35°29' E 139°47'5 4.6
2015-Mar-28 21:33N 35°27' E 139°42'3 3.0
2015-Mar-28 20:34N 35°27' E 139°39'0 0.0
2015-Mar-28 19:33N 35°27' E 139°39'0 0.0
2015-Mar-28 18:34N 35°27' E 139°39'0 0.0
2015-Mar-28 17:33N 35°27' E 139°39'0 0.0
2015-Mar-28 16:34N 35°27' E 139°39'0 0.0
2015-Mar-28 15:33N 35°27' E 139°39'0 0.0
2015-Mar-28 14:33N 35°27' E 139°39'0 0.0
2015-Mar-28 13:33N 35°27' E 139°39'0 0.0
2015-Mar-28 12:33N 35°27' E 139°39'0 0.1
2015-Mar-28 11:33N 35°27' E 139°38'4 4.0
2015-Mar-28 10:33N 35°24' E 139°41'0 0.1
2015-Mar-28 09:33N 35°24' E 139°41'1 0.9
2015-Mar-28 08:33N 35°24' E 139°40'2 2.3
2015-Mar-28 07:33N 35°25' E 139°42'4 3.9
2015-Mar-28 06:33N 35°29' E 139°40'5 5.2
2015-Mar-28 05:33N 35°31' E 139°46'1 1.1
2015-Mar-28 04:33N 35°30' E 139°45'3 2.8
2015-Mar-28 03:33N 35°28' E 139°44'2 2.5
2015-Mar-28 02:34N 35°28' E 139°41'0 0.0
2015-Mar-28 01:34N 35°28' E 139°41'0 0.0
2015-Mar-28 00:33N 35°28' E 139°41'0 0.0
2015-Mar-27 23:33N 35°28' E 139°41'2 1.9
2015-Mar-27 22:34N 35°27' E 139°43'4 3.6
2015-Mar-27 21:34N 35°27' E 139°38'0 0.0
2015-Mar-27 20:33N 35°27' E 139°38'0 0.0
2015-Mar-27 19:33N 35°27' E 139°38'0 0.0
2015-Mar-27 18:33N 35°27' E 139°38'0 0.0
2015-Mar-27 17:33N 35°27' E 139°38'0 0.0
2015-Mar-27 16:33N 35°27' E 139°38'0 0.0
2015-Mar-27 15:33N 35°27' E 139°38'0 0.0
2015-Mar-27 14:34N 35°27' E 139°38'0 0.0
2015-Mar-27 13:33N 35°27' E 139°38'0 0.0
2015-Mar-27 12:33N 35°27' E 139°38'0 0.0
2015-Mar-27 11:33N 35°27' E 139°38'0 0.0
2015-Mar-27 10:33N 35°27' E 139°38'0 0.0
2015-Mar-27 09:33N 35°27' E 139°38'0 0.0
2015-Mar-27 08:34N 35°27' E 139°38'0 0.0
2015-Mar-27 07:34N 35°27' E 139°38'0 0.0
2015-Mar-27 06:33N 35°27' E 139°38'0 0.0
2015-Mar-27 05:34N 35°27' E 139°38'0 0.0
2015-Mar-27 04:33N 35°27' E 139°38'0 0.0
2015-Mar-27 03:34N 35°27' E 139°38'0 0.0
2015-Mar-27 02:34N 35°27' E 139°38'0 0.0
2015-Mar-27 01:33N 35°27' E 139°38'0 0.0
2015-Mar-27 00:34N 35°27' E 139°38'0 0.0
2015-Mar-26 23:33N 35°27' E 139°38'3 2.6
2015-Mar-26 22:34N 35°29' E 139°41'2 2.0
2015-Mar-26 21:34N 35°27' E 139°43'0 0.5
2015-Mar-26 20:34N 35°27' E 139°42'0 0.0
2015-Mar-26 19:33N 35°27' E 139°42'0 0.0
2015-Mar-26 18:34N 35°27' E 139°42'0 0.0
2015-Mar-26 17:33N 35°27' E 139°42'0 0.0
2015-Mar-26 16:33N 35°27' E 139°42'2 1.5
2015-Mar-26 15:33N 35°26' E 139°41'2 2.5
2015-Mar-26 14:33N 35°27' E 139°44'1 1.2
2015-Mar-26 13:33N 35°28' E 139°42'1 0.6
2015-Mar-26 12:34N 35°28' E 139°42'0 0.5
2015-Mar-26 11:33N 35°28' E 139°42'1 1.4
2015-Mar-26 10:34N 35°26' E 139°42'0 0.4
2015-Mar-26 09:32N 35°27' E 139°42'1 1.5
2015-Mar-26 08:33N 35°26' E 139°40'1 0.9
2015-Mar-26 07:34N 35°27' E 139°41'0 0.1
2015-Mar-26 06:33N 35°27' E 139°41'2 2.0
2015-Mar-26 05:33N 35°27' E 139°39'0 0.0
2015-Mar-26 04:33N 35°27' E 139°39'0 0.0
2015-Mar-26 03:33N 35°27' E 139°39'0 0.0
2015-Mar-26 02:33N 35°27' E 139°39'0 0.0
2015-Mar-26 01:34N 35°27' E 139°39'0 0.0
2015-Mar-26 00:33N 35°27' E 139°39'0 0.0
2015-Mar-25 23:33N 35°27' E 139°39'0 0.0
2015-Mar-25 22:33N 35°27' E 139°39'0 0.0
2015-Mar-25 21:33N 35°27' E 139°39'0 0.0
2015-Mar-25 20:34N 35°27' E 139°39'0 0.0
2015-Mar-25 19:33N 35°27' E 139°39'0 0.0
2015-Mar-25 18:33N 35°27' E 139°39'0 0.0
2015-Mar-25 17:33N 35°27' E 139°39'0 0.0
2015-Mar-25 16:33N 35°27' E 139°39'0 0.0
2015-Mar-25 15:34N 35°27' E 139°39'0 0.0
2015-Mar-25 14:33N 35°27' E 139°39'0 0.0
2015-Mar-25 13:33N 35°27' E 139°39'0 0.0
2015-Mar-25 12:33N 35°27' E 139°39'0 0.0
2015-Mar-25 11:33N 35°27' E 139°39'0 0.0
2015-Mar-25 10:33N 35°27' E 139°39'0 0.0
2015-Mar-25 09:33N 35°27' E 139°39'0 0.0
2015-Mar-25 08:33N 35°27' E 139°39'0 0.0
2015-Mar-25 07:33N 35°27' E 139°39'0 0.0
2015-Mar-25 06:33N 35°27' E 139°39'0 0.0
2015-Mar-25 05:33N 35°27' E 139°39'1 1.4
2015-Mar-25 04:33N 35°28' E 139°40'2 1.8
2015-Mar-25 03:34N 35°28' E 139°42'1 0.8
2015-Mar-25 02:33N 35°28' E 139°43'0 0.1
2015-Mar-25 01:33N 35°28' E 139°43'2 1.9
2015-Mar-25 00:33N 35°26' E 139°44'2 1.7
2015-Mar-24 23:33N 35°27' E 139°42'1 1.1
2015-Mar-24 22:34N 35°27' E 139°41'2 2.3
2015-Mar-24 21:33N 35°25' E 139°43'4 4.0
2015-Mar-24 20:34N 35°27' E 139°38'0 0.1
2015-Mar-24 19:33N 35°27' E 139°39'0 0.0
2015-Mar-24 18:34N 35°27' E 139°39'0 0.0
2015-Mar-24 17:33N 35°27' E 139°39'0 0.0
2015-Mar-24 16:34N 35°27' E 139°39'0 0.0
2015-Mar-24 15:33N 35°27' E 139°39'0 0.0
2015-Mar-24 14:34N 35°27' E 139°39'0 0.0
2015-Mar-24 13:33N 35°27' E 139°39'0 0.0
2015-Mar-24 12:33N 35°27' E 139°39'0 0.0
2015-Mar-24 11:34N 35°27' E 139°39'0 0.0
2015-Mar-24 10:33N 35°27' E 139°39'3 2.5
2015-Mar-24 09:33N 35°28' E 139°41'4 4.1
2015-Mar-24 08:33N 35°30' E 139°46'7 6.7
2015-Mar-24 07:33N 35°27' E 139°38'0 0.0
2015-Mar-24 06:33N 35°27' E 139°38'0 0.0
2015-Mar-24 05:33N 35°27' E 139°38'0 0.0
2015-Mar-24 04:33N 35°27' E 139°38'0 0.0
2015-Mar-24 03:33N 35°27' E 139°38'0 0.0
2015-Mar-24 02:33N 35°27' E 139°38'0 0.0
2015-Mar-24 01:33N 35°27' E 139°38'0 0.0
2015-Mar-24 00:33N 35°27' E 139°38'0 0.0
2015-Mar-23 23:33N 35°27' E 139°38'2 2.4
2015-Mar-23 22:34N 35°28' E 139°41'3 2.9
2015-Mar-23 21:33N 35°26' E 139°45'5 5.1
2015-Mar-23 20:33N 35°27' E 139°38'0 0.0
2015-Mar-23 19:34N 35°27' E 139°38'0 0.0
2015-Mar-23 18:33N 35°27' E 139°38'0 0.0
2015-Mar-23 17:33N 35°27' E 139°38'0 0.0
2015-Mar-23 16:33N 35°27' E 139°38'0 0.0
2015-Mar-23 15:33N 35°27' E 139°38'0 0.0
2015-Mar-23 14:34N 35°27' E 139°38'0 0.0
2015-Mar-23 13:34N 35°27' E 139°38'0 0.0
2015-Mar-23 12:33N 35°27' E 139°38'0 0.0
2015-Mar-23 11:33N 35°27' E 139°38'3 2.8
2015-Mar-23 10:33N 35°26' E 139°42'2 2.5
2015-Mar-23 09:33N 35°24' E 139°41'2 2.2
2015-Mar-23 08:34N 35°25' E 139°43'6 5.9
2015-Mar-23 07:34N 35°29' E 139°48'4 3.9
2015-Mar-23 06:33N 35°30' E 139°43'3 2.9
2015-Mar-23 05:33N 35°27' E 139°42'0 0.0
2015-Mar-23 04:33N 35°27' E 139°42'4 3.8
2015-Mar-23 03:33N 35°29' E 139°45'4 4.4
2015-Mar-23 02:33N 35°28' E 139°40'0 0.0
2015-Mar-23 01:33N 35°28' E 139°40'0 0.0
2015-Mar-23 00:34N 35°28' E 139°40'0 0.4
2015-Mar-22 23:34N 35°27' E 139°40'1 1.4
2015-Mar-22 22:34N 35°27' E 139°42'3 3.0
2015-Mar-22 21:33N 35°27' E 139°38'0 0.1
2015-Mar-22 20:33N 35°27' E 139°38'0 0.0
2015-Mar-22 19:34N 35°27' E 139°38'0 0.0
2015-Mar-22 18:34N 35°27' E 139°38'0 0.0
2015-Mar-22 17:33N 35°27' E 139°38'0 0.0
2015-Mar-22 16:33N 35°27' E 139°38'0 0.0
2015-Mar-22 15:33N 35°27' E 139°38'0 0.0
2015-Mar-22 14:33N 35°27' E 139°38'0 0.0
2015-Mar-22 13:34N 35°27' E 139°38'0 0.0
2015-Mar-22 12:33N 35°27' E 139°38'0 0.0
2015-Mar-22 11:33N 35°27' E 139°38'0 0.0
2015-Mar-22 10:33N 35°27' E 139°38'0 0.0
2015-Mar-22 09:33N 35°27' E 139°38'0 0.0
2015-Mar-22 08:34N 35°27' E 139°38'0 0.0
2015-Mar-22 07:34N 35°27' E 139°38'1 0.8
2015-Mar-22 06:33N 35°27' E 139°39'1 1.1
2015-Mar-22 05:33N 35°27' E 139°41'2 1.8
2015-Mar-22 04:33N 35°26' E 139°43'1 0.9
2015-Mar-22 03:33N 35°27' E 139°44'3 3.4
2015-Mar-22 02:33N 35°27' E 139°40'0 0.0
2015-Mar-22 01:34N 35°27' E 139°40'0 0.0
2015-Mar-22 00:34N 35°27' E 139°40'0 0.0
2015-Mar-21 23:33N 35°27' E 139°40'0 0.0
2015-Mar-21 22:34N 35°27' E 139°40'0 0.0
2015-Mar-21 21:33N 35°27' E 139°40'0 0.0
2015-Mar-21 20:33N 35°27' E 139°40'0 0.0
2015-Mar-21 19:33N 35°27' E 139°40'0 0.0
2015-Mar-21 18:34N 35°27' E 139°40'0 0.0
2015-Mar-21 17:33N 35°27' E 139°40'0 0.0
2015-Mar-21 16:33N 35°27' E 139°40'0 0.0
2015-Mar-21 15:33N 35°27' E 139°40'0 0.0
2015-Mar-21 14:33N 35°27' E 139°40'0 0.0
2015-Mar-21 13:33N 35°27' E 139°40'0 0.0
2015-Mar-21 12:33N 35°27' E 139°40'0 0.0
2015-Mar-21 11:34N 35°27' E 139°40'0 0.0
2015-Mar-21 10:33N 35°27' E 139°40'0 0.0
2015-Mar-21 09:34N 35°27' E 139°40'0 0.0
2015-Mar-21 08:33N 35°27' E 139°40'0 0.0
2015-Mar-21 07:33N 35°27' E 139°40'0 0.0
2015-Mar-21 06:33N 35°27' E 139°40'0 0.0
2015-Mar-21 05:33N 35°27' E 139°40'0 0.0
2015-Mar-21 04:33N 35°27' E 139°40'0 0.0
2015-Mar-21 03:34N 35°27' E 139°40'0 0.0
2015-Mar-21 02:34N 35°27' E 139°40'0 0.0
2015-Mar-21 01:33N 35°27' E 139°40'0 0.0
2015-Mar-21 00:33N 35°27' E 139°40'0 0.4
2015-Mar-20 23:34N 35°27' E 139°40'2 2.4
2015-Mar-20 22:33N 35°26' E 139°42'0 0.5
2015-Mar-20 21:33N 35°26' E 139°43'5 4.8
2015-Mar-20 20:33N 35°30' E 139°46'5 4.6
2015-Mar-20 19:33N 35°27' E 139°42'0 0.0
2015-Mar-20 18:33N 35°27' E 139°42'0 0.0
2015-Mar-20 17:34N 35°27' E 139°42'0 0.0
2015-Mar-20 16:34N 35°27' E 139°42'3 3.1
2015-Mar-20 15:33N 35°28' E 139°45'2 2.0
2015-Mar-20 14:33N 35°29' E 139°43'3 2.7
2015-Mar-20 13:33N 35°28' E 139°40'0 0.0
2015-Mar-20 12:34N 35°28' E 139°40'0 0.0
2015-Mar-20 11:33N 35°28' E 139°40'1 1.3
2015-Mar-20 10:33N 35°26' E 139°41'1 0.7
2015-Mar-20 09:34N 35°27' E 139°41'1 0.9
2015-Mar-20 08:33N 35°27' E 139°40'1 1.4
2015-Mar-20 07:33N 35°27' E 139°38'0 0.0
2015-Mar-20 06:33N 35°27' E 139°38'0 0.0
2015-Mar-20 05:33N 35°27' E 139°38'0 0.0
2015-Mar-20 04:33N 35°27' E 139°38'0 0.0
2015-Mar-20 03:33N 35°27' E 139°38'0 0.0
2015-Mar-20 02:33N 35°27' E 139°38'0 0.0
2015-Mar-20 01:34N 35°27' E 139°38'0 0.0
2015-Mar-20 00:33N 35°27' E 139°38'0 0.0
2015-Mar-19 23:33N 35°27' E 139°38'0 0.0
2015-Mar-19 22:33N 35°27' E 139°38'0 0.0
2015-Mar-19 21:34N 35°27' E 139°38'0 0.0
2015-Mar-19 20:33N 35°27' E 139°38'0 0.0
2015-Mar-19 19:33N 35°27' E 139°38'0 0.0
2015-Mar-19 18:34N 35°27' E 139°38'0 0.0
2015-Mar-19 17:33N 35°27' E 139°38'0 0.0
2015-Mar-19 16:33N 35°27' E 139°38'0 0.0
2015-Mar-19 15:33N 35°27' E 139°38'0 0.0
2015-Mar-19 14:33N 35°27' E 139°38'0 0.0
2015-Mar-19 13:33N 35°27' E 139°38'0 0.0
2015-Mar-19 12:33N 35°27' E 139°38'0 0.0
2015-Mar-19 11:34N 35°27' E 139°38'0 0.0
2015-Mar-19 10:33N 35°27' E 139°38'0 0.0
2015-Mar-19 09:33N 35°27' E 139°38'  
Track history (hours):
 
Tides and Currents Weather Stations Pressure Air Temp Water Temp Dewpoint Dewpoint Depression Visibility Wind Speed Wind Dir Waves Ship Positions

Kyoto Maru

Last reported at 2015-Mar-29 10:33 UTC. Time now 2015-Mar-29 10:38 UTC.
Position N 35°27' E 139°38'.

Length 34 m; draft 3.8 m.

Type: Tug. MMSI: 431002219.

Date/timePositionNaut miles runAvg speedWind from/ knotsBaromVisibWave heightAir tempDewpointWater temp
2015-Mar-29 10:33N 35°27' E 139°38'0 0.0
2015-Mar-29 09:33N 35°27' E 139°38'0 0.0
2015-Mar-29 08:33N 35°27' E 139°38'0 0.0
2015-Mar-29 07:33N 35°27' E 139°38'1 0.8
2015-Mar-29 06:34N 35°27' E 139°39'1 1.1
2015-Mar-29 05:33N 35°27' E 139°41'4 3.8
2015-Mar-29 04:33N 35°29' E 139°45'1 0.8
2015-Mar-29 03:33N 35°28' E 139°45'0 0.0
2015-Mar-29 02:33N 35°28' E 139°45'2 2.4
2015-Mar-29 01:34N 35°30' E 139°47'1 0.7
2015-Mar-29 00:33N 35°31' E 139°46'1 1.5
2015-Mar-28 23:33N 35°29' E 139°47'0 0.0
2015-Mar-28 22:34N 35°29' E 139°47'5 4.6
2015-Mar-28 21:33N 35°27' E 139°42'3 3.0
2015-Mar-28 20:34N 35°27' E 139°39'0 0.0
2015-Mar-28 19:33N 35°27' E 139°39'0 0.0
2015-Mar-28 18:34N 35°27' E 139°39'0 0.0
2015-Mar-28 17:33N 35°27' E 139°39'0 0.0
2015-Mar-28 16:34N 35°27' E 139°39'0 0.0
2015-Mar-28 15:33N 35°27' E 139°39'0 0.0
2015-Mar-28 14:33N 35°27' E 139°39'0 0.0
2015-Mar-28 13:33N 35°27' E 139°39'0 0.0
2015-Mar-28 12:33N 35°27' E 139°39'0 0.1
2015-Mar-28 11:33N 35°27' E 139°38'4 4.0
2015-Mar-28 10:33N 35°24' E 139°41'0 0.1
2015-Mar-28 09:33N 35°24' E 139°41'1 0.9
2015-Mar-28 08:33N 35°24' E 139°40'2 2.3
2015-Mar-28 07:33N 35°25' E 139°42'4 3.9
2015-Mar-28 06:33N 35°29' E 139°40'5 5.2
2015-Mar-28 05:33N 35°31' E 139°46'1 1.1
2015-Mar-28 04:33N 35°30' E 139°45'3 2.8
2015-Mar-28 03:33N 35°28' E 139°44'2 2.5
2015-Mar-28 02:34N 35°28' E 139°41'0 0.0
2015-Mar-28 01:34N 35°28' E 139°41'0 0.0
2015-Mar-28 00:33N 35°28' E 139°41'0 0.0
2015-Mar-27 23:33N 35°28' E 139°41'2 1.9
2015-Mar-27 22:34N 35°27' E 139°43'4 3.6
2015-Mar-27 21:34N 35°27' E 139°38'0 0.0
2015-Mar-27 20:33N 35°27' E 139°38'0 0.0
2015-Mar-27 19:33N 35°27' E 139°38'0 0.0
2015-Mar-27 18:33N 35°27' E 139°38'0 0.0
2015-Mar-27 17:33N 35°27' E 139°38'0 0.0
2015-Mar-27 16:33N 35°27' E 139°38'0 0.0
2015-Mar-27 15:33N 35°27' E 139°38'0 0.0
2015-Mar-27 14:34N 35°27' E 139°38'0 0.0
2015-Mar-27 13:33N 35°27' E 139°38'0 0.0
2015-Mar-27 12:33N 35°27' E 139°38'0 0.0
2015-Mar-27 11:33N 35°27' E 139°38'0 0.0
2015-Mar-27 10:33N 35°27' E 139°38'0 0.0
2015-Mar-27 09:33N 35°27' E 139°38'0 0.0
2015-Mar-27 08:34N 35°27' E 139°38'0 0.0
2015-Mar-27 07:34N 35°27' E 139°38'0 0.0
2015-Mar-27 06:33N 35°27' E 139°38'0 0.0
2015-Mar-27 05:34N 35°27' E 139°38'0 0.0
2015-Mar-27 04:33N 35°27' E 139°38'0 0.0
2015-Mar-27 03:34N 35°27' E 139°38'0 0.0
2015-Mar-27 02:34N 35°27' E 139°38'0 0.0
2015-Mar-27 01:33N 35°27' E 139°38'0 0.0
2015-Mar-27 00:34N 35°27' E 139°38'0 0.0
2015-Mar-26 23:33N 35°27' E 139°38'3 2.6
2015-Mar-26 22:34N 35°29' E 139°41'2 2.0
2015-Mar-26 21:34N 35°27' E 139°43'0 0.5
2015-Mar-26 20:34N 35°27' E 139°42'0 0.0
2015-Mar-26 19:33N 35°27' E 139°42'0 0.0
2015-Mar-26 18:34N 35°27' E 139°42'0 0.0
2015-Mar-26 17:33N 35°27' E 139°42'0 0.0
2015-Mar-26 16:33N 35°27' E 139°42'2 1.5
2015-Mar-26 15:33N 35°26' E 139°41'2 2.5
2015-Mar-26 14:33N 35°27' E 139°44'1 1.2
2015-Mar-26 13:33N 35°28' E 139°42'1 0.6
2015-Mar-26 12:34N 35°28' E 139°42'0 0.5
2015-Mar-26 11:33N 35°28' E 139°42'1 1.4
2015-Mar-26 10:34N 35°26' E 139°42'0 0.4
2015-Mar-26 09:32N 35°27' E 139°42'1 1.5
2015-Mar-26 08:33N 35°26' E 139°40'1 0.9
2015-Mar-26 07:34N 35°27' E 139°41'0 0.1
2015-Mar-26 06:33N 35°27' E 139°41'2 2.0
2015-Mar-26 05:33N 35°27' E 139°39'0 0.0
2015-Mar-26 04:33N 35°27' E 139°39'0 0.0
2015-Mar-26 03:33N 35°27' E 139°39'0 0.0
2015-Mar-26 02:33N 35°27' E 139°39'0 0.0
2015-Mar-26 01:34N 35°27' E 139°39'0 0.0
2015-Mar-26 00:33N 35°27' E 139°39'0 0.0
2015-Mar-25 23:33N 35°27' E 139°39'0 0.0
2015-Mar-25 22:33N 35°27' E 139°39'0 0.0
2015-Mar-25 21:33N 35°27' E 139°39'0 0.0
2015-Mar-25 20:34N 35°27' E 139°39'0 0.0
2015-Mar-25 19:33N 35°27' E 139°39'0 0.0
2015-Mar-25 18:33N 35°27' E 139°39'0 0.0
2015-Mar-25 17:33N 35°27' E 139°39'0 0.0
2015-Mar-25 16:33N 35°27' E 139°39'0 0.0
2015-Mar-25 15:34N 35°27' E 139°39'0 0.0
2015-Mar-25 14:33N 35°27' E 139°39'0 0.0
2015-Mar-25 13:33N 35°27' E 139°39'0 0.0
2015-Mar-25 12:33N 35°27' E 139°39'0 0.0
2015-Mar-25 11:33N 35°27' E 139°39'0 0.0
2015-Mar-25 10:33N 35°27' E 139°39'0 0.0
2015-Mar-25 09:33N 35°27' E 139°39'0 0.0
2015-Mar-25 08:33N 35°27' E 139°39'0 0.0
2015-Mar-25 07:33N 35°27' E 139°39'0 0.0
2015-Mar-25 06:33N 35°27' E 139°39'0 0.0
2015-Mar-25 05:33N 35°27' E 139°39'1 1.4
2015-Mar-25 04:33N 35°28' E 139°40'2 1.8
2015-Mar-25 03:34N 35°28' E 139°42'1 0.8
2015-Mar-25 02:33N 35°28' E 139°43'0 0.1
2015-Mar-25 01:33N 35°28' E 139°43'2 1.9
2015-Mar-25 00:33N 35°26' E 139°44'2 1.7
2015-Mar-24 23:33N 35°27' E 139°42'1 1.1
2015-Mar-24 22:34N 35°27' E 139°41'2 2.3
2015-Mar-24 21:33N 35°25' E 139°43'4 4.0
2015-Mar-24 20:34N 35°27' E 139°38'0 0.1
2015-Mar-24 19:33N 35°27' E 139°39'0 0.0
2015-Mar-24 18:34N 35°27' E 139°39'0 0.0
2015-Mar-24 17:33N 35°27' E 139°39'0 0.0
2015-Mar-24 16:34N 35°27' E 139°39'0 0.0
2015-Mar-24 15:33N 35°27' E 139°39'0 0.0
2015-Mar-24 14:34N 35°27' E 139°39'0 0.0
2015-Mar-24 13:33N 35°27' E 139°39'0 0.0
2015-Mar-24 12:33N 35°27' E 139°39'0 0.0
2015-Mar-24 11:34N 35°27' E 139°39'0 0.0
2015-Mar-24 10:33N 35°27' E 139°39'3 2.5
2015-Mar-24 09:33N 35°28' E 139°41'4 4.1
2015-Mar-24 08:33N 35°30' E 139°46'7 6.7
2015-Mar-24 07:33N 35°27' E 139°38'0 0.0
2015-Mar-24 06:33N 35°27' E 139°38'0 0.0
2015-Mar-24 05:33N 35°27' E 139°38'0 0.0
2015-Mar-24 04:33N 35°27' E 139°38'0 0.0
2015-Mar-24 03:33N 35°27' E 139°38'0 0.0
2015-Mar-24 02:33N 35°27' E 139°38'0 0.0
2015-Mar-24 01:33N 35°27' E 139°38'0 0.0
2015-Mar-24 00:33N 35°27' E 139°38'0 0.0
2015-Mar-23 23:33N 35°27' E 139°38'2 2.4
2015-Mar-23 22:34N 35°28' E 139°41'3 2.9
2015-Mar-23 21:33N 35°26' E 139°45'5 5.1
2015-Mar-23 20:33N 35°27' E 139°38'0 0.0
2015-Mar-23 19:34N 35°27' E 139°38'0 0.0
2015-Mar-23 18:33N 35°27' E 139°38'0 0.0
2015-Mar-23 17:33N 35°27' E 139°38'0 0.0
2015-Mar-23 16:33N 35°27' E 139°38'0 0.0
2015-Mar-23 15:33N 35°27' E 139°38'0 0.0
2015-Mar-23 14:34N 35°27' E 139°38'0 0.0
2015-Mar-23 13:34N 35°27' E 139°38'0 0.0
2015-Mar-23 12:33N 35°27' E 139°38'0 0.0
2015-Mar-23 11:33N 35°27' E 139°38'3 2.8
2015-Mar-23 10:33N 35°26' E 139°42'2 2.5
2015-Mar-23 09:33N 35°24' E 139°41'2 2.2
2015-Mar-23 08:34N 35°25' E 139°43'6 5.9
2015-Mar-23 07:34N 35°29' E 139°48'4 3.9
2015-Mar-23 06:33N 35°30' E 139°43'3 2.9
2015-Mar-23 05:33N 35°27' E 139°42'0 0.0
2015-Mar-23 04:33N 35°27' E 139°42'4 3.8
2015-Mar-23 03:33N 35°29' E 139°45'4 4.4
2015-Mar-23 02:33N 35°28' E 139°40'0 0.0
2015-Mar-23 01:33N 35°28' E 139°40'0 0.0
2015-Mar-23 00:34N 35°28' E 139°40'0 0.4
2015-Mar-22 23:34N 35°27' E 139°40'1 1.4
2015-Mar-22 22:34N 35°27' E 139°42'3 3.0
2015-Mar-22 21:33N 35°27' E 139°38'0 0.1
2015-Mar-22 20:33N 35°27' E 139°38'0 0.0
2015-Mar-22 19:34N 35°27' E 139°38'0 0.0
2015-Mar-22 18:34N 35°27' E 139°38'0 0.0
2015-Mar-22 17:33N 35°27' E 139°38'0 0.0
2015-Mar-22 16:33N 35°27' E 139°38'0 0.0
2015-Mar-22 15:33N 35°27' E 139°38'0 0.0
2015-Mar-22 14:33N 35°27' E 139°38'0 0.0
2015-Mar-22 13:34N 35°27' E 139°38'0 0.0
2015-Mar-22 12:33N 35°27' E 139°38'0 0.0
2015-Mar-22 11:33N 35°27' E 139°38'0 0.0
2015-Mar-22 10:33N 35°27' E 139°38'0 0.0
2015-Mar-22 09:33N 35°27' E 139°38'0 0.0
2015-Mar-22 08:34N 35°27' E 139°38'0 0.0
2015-Mar-22 07:34N 35°27' E 139°38'1 0.8
2015-Mar-22 06:33N 35°27' E 139°39'1 1.1
2015-Mar-22 05:33N 35°27' E 139°41'2 1.8
2015-Mar-22 04:33N 35°26' E 139°43'1 0.9
2015-Mar-22 03:33N 35°27' E 139°44'3 3.4
2015-Mar-22 02:33N 35°27' E 139°40'0 0.0
2015-Mar-22 01:34N 35°27' E 139°40'0 0.0
2015-Mar-22 00:34N 35°27' E 139°40'0 0.0
2015-Mar-21 23:33N 35°27' E 139°40'0 0.0
2015-Mar-21 22:34N 35°27' E 139°40'0 0.0
2015-Mar-21 21:33N 35°27' E 139°40'0 0.0
2015-Mar-21 20:33N 35°27' E 139°40'0 0.0
2015-Mar-21 19:33N 35°27' E 139°40'0 0.0
2015-Mar-21 18:34N 35°27' E 139°40'0 0.0
2015-Mar-21 17:33N 35°27' E 139°40'0 0.0
2015-Mar-21 16:33N 35°27' E 139°40'0 0.0
2015-Mar-21 15:33N 35°27' E 139°40'0 0.0
2015-Mar-21 14:33N 35°27' E 139°40'0 0.0
2015-Mar-21 13:33N 35°27' E 139°40'0 0.0
2015-Mar-21 12:33N 35°27' E 139°40'0 0.0
2015-Mar-21 11:34N 35°27' E 139°40'0 0.0
2015-Mar-21 10:33N 35°27' E 139°40'0 0.0
2015-Mar-21 09:34N 35°27' E 139°40'0 0.0
2015-Mar-21 08:33N 35°27' E 139°40'0 0.0
2015-Mar-21 07:33N 35°27' E 139°40'0 0.0
2015-Mar-21 06:33N 35°27' E 139°40'0 0.0
2015-Mar-21 05:33N 35°27' E 139°40'0 0.0
2015-Mar-21 04:33N 35°27' E 139°40'0 0.0
2015-Mar-21 03:34N 35°27' E 139°40'0 0.0
2015-Mar-21 02:34N 35°27' E 139°40'0 0.0
2015-Mar-21 01:33N 35°27' E 139°40'0 0.0
2015-Mar-21 00:33N 35°27' E 139°40'0 0.4
2015-Mar-20 23:34N 35°27' E 139°40'2 2.4
2015-Mar-20 22:33N 35°26' E 139°42'0 0.5
2015-Mar-20 21:33N 35°26' E 139°43'5 4.8
2015-Mar-20 20:33N 35°30' E 139°46'5 4.6
2015-Mar-20 19:33N 35°27' E 139°42'0 0.0
2015-Mar-20 18:33N 35°27' E 139°42'0 0.0
2015-Mar-20 17:34N 35°27' E 139°42'0 0.0
2015-Mar-20 16:34N 35°27' E 139°42'3 3.1
2015-Mar-20 15:33N 35°28' E 139°45'2 2.0
2015-Mar-20 14:33N 35°29' E 139°43'3 2.7
2015-Mar-20 13:33N 35°28' E 139°40'0 0.0
2015-Mar-20 12:34N 35°28' E 139°40'0 0.0
2015-Mar-20 11:33N 35°28' E 139°40'1 1.3
2015-Mar-20 10:33N 35°26' E 139°41'1 0.7
2015-Mar-20 09:34N 35°27' E 139°41'1 0.9
2015-Mar-20 08:33N 35°27' E 139°40'1 1.4
2015-Mar-20 07:33N 35°27' E 139°38'0 0.0
2015-Mar-20 06:33N 35°27' E 139°38'0 0.0
2015-Mar-20 05:33N 35°27' E 139°38'0 0.0
2015-Mar-20 04:33N 35°27' E 139°38'0 0.0
2015-Mar-20 03:33N 35°27' E 139°38'0 0.0
2015-Mar-20 02:33N 35°27' E 139°38'0 0.0
2015-Mar-20 01:34N 35°27' E 139°38'0 0.0
2015-Mar-20 00:33N 35°27' E 139°38'0 0.0
2015-Mar-19 23:33N 35°27' E 139°38'0 0.0
2015-Mar-19 22:33N 35°27' E 139°38'0 0.0
2015-Mar-19 21:34N 35°27' E 139°38'0 0.0
2015-Mar-19 20:33N 35°27' E 139°38'0 0.0
2015-Mar-19 19:33N 35°27' E 139°38'0 0.0
2015-Mar-19 18:34N 35°27' E 139°38'0 0.0
2015-Mar-19 17:33N 35°27' E 139°38'0 0.0
2015-Mar-19 16:33N 35°27' E 139°38'0 0.0
2015-Mar-19 15:33N 35°27' E 139°38'0 0.0
2015-Mar-19 14:33N 35°27' E 139°38'0 0.0
2015-Mar-19 13:33N 35°27' E 139°38'0 0.0
2015-Mar-19 12:33N 35°27' E 139°38'0 0.0
2015-Mar-19 11:34N 35°27' E 139°38'0 0.0
2015-Mar-19 10:33N 35°27' E 139°38'0 0.0
2015-Mar-19 09:33N 35°27' E 139°38'  

Dump ship's entire track history